Time;durP1;ratioP1;P1;durP2;ratioP2;P2;SDS_P1;SDS_P2;PMS_P1;PMS_P2;Temp;Humidity;BMP_temperature;BMP_pressure;BME280_temperature;BME280_humidity;BME280_pressure;Samples;Min_cycle;Max_cycle;Signal;HPM_P1;HPM_P2
2021/03/27 00:05:26;;;;;;;8.60;5.47;;;10.80;90.10;;;;;;5058372;28;20423;-69
2021/03/27 00:08:06;;;;;;;6.27;5.63;;;10.70;90.50;;;;;;5076985;28;20430;-67
2021/03/27 00:10:39;;;;;;;6.40;5.40;;;10.60;90.70;;;;;;5076622;28;20433;-70
2021/03/27 00:13:19;;;;;;;8.80;6.63;;;10.60;91.20;;;;;;5076344;28;20918;-67
2021/03/27 00:15:55;;;;;;;6.57;5.87;;;10.50;91.30;;;;;;5070240;28;20492;-68
2021/03/27 00:18:47;;;;;;;9.57;6.40;;;10.40;91.70;;;;;;5056252;28;20430;-68
2021/03/27 00:21:23;;;;;;;9.07;6.40;;;10.40;92.00;;;;;;5056260;28;20427;-67
2021/03/27 00:23:53;;;;;;;6.87;5.57;;;10.30;92.30;;;;;;5056161;28;20488;-66
2021/03/27 00:26:25;;;;;;;9.67;6.70;;;10.40;92.50;;;;;;5056059;28;20445;-67
2021/03/27 00:28:57;;;;;;;9.53;6.00;;;10.30;92.80;;;;;;5056229;28;20434;-66
2021/03/27 00:31:29;;;;;;;7.87;5.20;;;10.30;92.90;;;;;;5063164;28;20540;-68
2021/03/27 00:34:04;;;;;;;8.20;6.20;;;10.20;93.10;;;;;;5056988;28;20427;-67
2021/03/27 00:36:38;;;;;;;6.13;5.53;;;10.20;93.50;;;;;;5057811;28;20434;-69
2021/03/27 00:39:11;;;;;;;5.80;4.90;;;10.30;93.50;;;;;;5056527;28;20427;-69
2021/03/27 00:41:41;;;;;;;8.67;5.40;;;10.20;93.80;;;;;;5055598;28;20510;-68
2021/03/27 00:44:12;;;;;;;9.40;6.10;;;10.20;94.20;;;;;;5055674;28;20946;-67
2021/03/27 00:46:43;;;;;;;5.80;5.20;;;10.20;94.20;;;;;;5068456;28;20478;-67
2021/03/27 00:49:15;;;;;;;6.87;5.87;;;10.20;94.50;;;;;;5076470;28;20429;-67
2021/03/27 00:51:50;;;;;;;7.23;6.33;;;10.20;94.50;;;;;;5075358;28;20441;-68
2021/03/27 00:54:24;;;;;;;8.00;6.23;;;10.30;94.40;;;;;;5075207;28;20477;-68
2021/03/27 00:57:04;;;;;;;5.97;5.37;;;10.10;95.10;;;;;;5075767;28;20484;-66
2021/03/27 00:59:34;;;;;;;6.17;5.57;;;9.90;96.30;;;;;;5074726;28;20429;-69
2021/03/27 01:02:14;;;;;;;8.30;5.30;;;9.90;96.30;;;;;;5070271;28;20497;-69
2021/03/27 01:04:47;;;;;;;10.23;6.10;;;9.90;96.50;;;;;;5055500;28;20438;-68
2021/03/27 01:07:35;;;;;;;10.33;6.10;;;10.00;96.00;;;;;;5054948;28;20435;-67
2021/03/27 01:10:26;;;;;;;8.30;4.93;;;10.10;96.20;;;;;;5057239;28;20494;-67
2021/03/27 01:13:24;;;;;;;7.10;5.40;;;10.10;95.90;;;;;;5064534;28;20462;-69
2021/03/27 01:15:55;;;;;;;6.97;6.20;;;10.10;96.00;;;;;;5060324;28;20481;-67
2021/03/27 01:18:27;;;;;;;7.87;5.50;;;10.20;96.00;;;;;;5073730;28;20579;-69
2021/03/27 01:21:01;;;;;;;8.73;6.10;;;10.20;96.00;;;;;;5075604;28;20434;-67
2021/03/27 01:23:30;;;;;;;8.10;6.90;;;10.20;96.10;;;;;;5073749;28;21004;-68
2021/03/27 01:25:59;;;;;;;6.53;5.80;;;10.20;96.30;;;;;;5075140;28;20430;-67
2021/03/27 01:28:32;;;;;;;7.97;5.37;;;10.00;96.60;;;;;;5073199;28;20439;-69
2021/03/27 01:31:05;;;;;;;6.80;5.87;;;10.00;96.70;;;;;;5074863;28;20473;-68
2021/03/27 01:33:39;;;;;;;8.00;6.27;;;10.00;96.90;;;;;;5074184;28;20496;-68
2021/03/27 01:36:12;;;;;;;7.43;5.10;;;10.10;97.00;;;;;;5075239;28;20465;-70
2021/03/27 01:38:46;;;;;;;8.53;6.00;;;10.20;96.90;;;;;;5075357;28;20499;-68
2021/03/27 01:41:24;;;;;;;8.80;5.23;;;10.30;96.80;;;;;;5073640;28;20438;-68
2021/03/27 01:44:08;;;;;;;7.13;5.00;;;10.30;97.00;;;;;;5076831;28;20441;-67
2021/03/27 01:47:03;;;;;;;7.50;5.87;;;10.30;97.10;;;;;;5077757;28;20852;-68
2021/03/27 01:49:50;;;;;;;7.10;5.70;;;10.30;97.20;;;;;;5079302;28;20419;-68
2021/03/27 01:52:43;;;;;;;11.80;6.37;;;10.40;97.20;;;;;;5082846;28;20481;-68
2021/03/27 01:55:27;;;;;;;7.10;6.40;;;10.50;97.10;;;;;;5081063;28;20518;-68
2021/03/27 01:58:00;;;;;;;8.03;6.30;;;10.50;97.10;;;;;;5084306;28;20491;-68
2021/03/27 02:00:32;;;;;;;6.63;5.90;;;10.50;97.00;;;;;;5080479;28;20529;-67
2021/03/27 02:03:07;;;;;;;6.90;5.30;;;10.60;96.80;;;;;;5083095;28;20435;-70
2021/03/27 02:05:40;;;;;;;6.90;5.37;;;10.70;96.70;;;;;;5081517;28;20449;-67
2021/03/27 02:08:16;;;;;;;6.93;6.10;;;10.60;96.70;;;;;;5082215;28;20451;-67
2021/03/27 02:10:54;;;;;;;12.80;6.77;;;10.60;96.90;;;;;;5075241;28;20517;-69
2021/03/27 02:13:28;;;;;;;10.37;6.60;;;10.60;96.90;;;;;;5073658;28;20529;-66
2021/03/27 02:16:03;;;;;;;6.50;5.83;;;10.60;96.80;;;;;;5072922;28;20549;-67
2021/03/27 02:18:37;;;;;;;9.93;6.10;;;10.70;96.90;;;;;;5074611;28;20441;-67
2021/03/27 02:21:33;;;;;;;8.70;6.00;;;10.70;96.50;;;;;;5074452;28;20431;-69
2021/03/27 02:24:41;;;;;;;8.03;5.90;;;10.70;96.50;;;;;;5074185;28;20431;-66
2021/03/27 02:27:14;;;;;;;9.23;6.43;;;10.70;96.50;;;;;;5074373;28;20433;-67
2021/03/27 02:30:01;;;;;;;8.83;6.27;;;10.70;96.50;;;;;;5074252;28;20951;-69
2021/03/27 02:32:40;;;;;;;7.40;5.90;;;10.60;96.60;;;;;;5073766;28;20461;-67
2021/03/27 02:35:17;;;;;;;6.83;5.23;;;10.60;96.90;;;;;;5073316;28;20574;-69
2021/03/27 02:37:58;;;;;;;8.27;6.23;;;10.60;96.90;;;;;;5073871;28;20436;-68
2021/03/27 02:40:34;;;;;;;8.97;5.60;;;10.70;96.90;;;;;;5074219;28;20452;-66
2021/03/27 02:43:06;;;;;;;7.17;5.70;;;10.90;97.00;;;;;;5074126;28;20795;-66
2021/03/27 02:45:38;;;;;;;9.00;5.93;;;11.00;96.90;;;;;;5073300;28;20525;-67
2021/03/27 02:48:14;;;;;;;14.33;6.67;;;11.00;96.80;;;;;;5074285;28;20430;-67
2021/03/27 02:54:16;;;;;;;9.37;6.17;;;11.10;96.70;;;;;;5074267;28;20782;-66
2021/03/27 02:56:53;;;;;;;6.30;5.60;;;11.20;97.00;;;;;;5074316;28;20429;-66
2021/03/27 02:59:33;;;;;;;7.37;5.20;;;11.20;97.00;;;;;;5074260;28;20414;-66
2021/03/27 03:02:11;;;;;;;8.47;5.80;;;11.10;97.30;;;;;;5072931;28;20556;-68
2021/03/27 03:04:47;;;;;;;6.47;5.17;;;11.20;97.30;;;;;;5073557;28;20896;-67
2021/03/27 03:07:25;;;;;;;7.63;6.93;;;11.10;97.60;;;;;;5072340;28;20429;-67
2021/03/27 03:09:57;;;;;;;8.40;5.90;;;11.10;97.70;;;;;;5089362;28;20433;-70
2021/03/27 03:12:39;;;;;;;7.47;5.83;;;11.10;97.60;;;;;;5074114;28;20517;-67
2021/03/27 03:15:24;;;;;;;5.80;5.20;;;11.00;98.00;;;;;;5073415;28;20864;-66
2021/03/27 03:17:59;;;;;;;7.40;4.93;;;10.80;98.20;;;;;;5073638;28;20798;-67
2021/03/27 03:20:33;;;;;;;6.77;4.53;;;11.00;98.30;;;;;;5073777;28;20428;-67
2021/03/27 03:23:07;;;;;;;7.73;4.90;;;11.00;98.60;;;;;;5073807;28;20433;-67
2021/03/27 03:25:47;;;;;;;5.53;4.77;;;10.90;98.90;;;;;;5079078;28;20959;-67
2021/03/27 03:28:23;;;;;;;5.60;4.43;;;11.00;99.30;;;;;;5077093;28;20445;-68
2021/03/27 03:31:03;;;;;;;6.63;5.03;;;11.00;99.90;;;;;;5074054;28;20481;-67
2021/03/27 03:33:43;;;;;;;6.13;4.80;;;11.10;99.90;;;;;;5074821;28;20433;-67
2021/03/27 03:36:16;;;;;;;5.83;5.10;;;11.10;99.90;;;;;;5075369;28;20927;-68
2021/03/27 03:39:01;;;;;;;5.60;3.83;;;11.00;99.90;;;;;;5076229;28;20452;-68
2021/03/27 03:41:44;;;;;;;5.43;4.30;;;11.10;99.90;;;;;;5075482;28;20438;-67
2021/03/27 03:44:16;;;;;;;7.27;4.60;;;11.10;99.90;;;;;;5073100;28;20441;-67
2021/03/27 03:46:54;;;;;;;4.70;4.10;;;11.10;99.90;;;;;;5075341;28;20983;-67
2021/03/27 03:49:48;;;;;;;5.43;4.30;;;11.10;99.90;;;;;;5077447;28;20423;-68
2021/03/27 03:52:40;;;;;;;6.60;4.50;;;11.20;99.90;;;;;;5086439;28;20463;-68
2021/03/27 03:55:19;;;;;;;6.17;4.20;;;11.20;99.90;;;;;;5076942;28;20473;-68
2021/03/27 03:58:21;;;;;;;4.73;4.20;;;11.20;99.90;;;;;;5077245;28;20414;-67
2021/03/27 04:00:57;;;;;;;4.17;3.77;;;11.20;99.90;;;;;;5076332;28;20544;-67
2021/03/27 04:03:33;;;;;;;4.93;4.20;;;11.40;99.90;;;;;;5077260;28;20498;-67
2021/03/27 04:06:06;;;;;;;5.03;4.27;;;11.30;99.90;;;;;;5077357;28;20429;-67
2021/03/27 04:08:45;;;;;;;5.13;4.50;;;11.40;99.90;;;;;;5077682;28;20429;-68
2021/03/27 04:11:40;;;;;;;6.73;4.00;;;11.50;99.90;;;;;;5077322;28;20780;-71
2021/03/27 04:14:21;;;;;;;3.90;3.57;;;11.40;99.90;;;;;;5077107;28;20524;-66
2021/03/27 04:16:52;;;;;;;4.90;3.80;;;11.40;99.90;;;;;;5076005;28;20512;-67
2021/03/27 04:19:26;;;;;;;6.60;4.00;;;11.50;99.90;;;;;;5076358;28;20552;-67
2021/03/27 04:22:11;;;;;;;3.70;3.20;;;11.50;99.90;;;;;;5076083;28;20485;-67
2021/03/27 04:25:01;;;;;;;4.30;3.50;;;11.50;99.90;;;;;;5077932;28;20433;-68
2021/03/27 04:27:32;;;;;;;5.50;4.00;;;11.40;99.90;;;;;;5077271;28;20807;-67
2021/03/27 04:30:12;;;;;;;3.90;3.50;;;11.40;99.90;;;;;;5077120;28;20439;-67
2021/03/27 04:32:48;;;;;;;5.20;3.90;;;11.40;99.90;;;;;;5075269;28;20455;-67
2021/03/27 04:35:28;;;;;;;4.43;3.73;;;11.40;99.90;;;;;;5092407;28;20589;-69
2021/03/27 04:38:11;;;;;;;3.63;3.20;;;11.10;99.90;;;;;;5077508;28;20447;-68
2021/03/27 04:40:44;;;;;;;4.60;3.10;;;11.10;99.90;;;;;;5077058;28;20434;-67
2021/03/27 04:43:20;;;;;;;4.50;3.67;;;11.10;99.90;;;;;;5076979;28;20429;-68
2021/03/27 04:45:50;;;;;;;3.70;3.27;;;10.90;99.90;;;;;;5076072;28;20448;-67
2021/03/27 04:48:26;;;;;;;5.07;3.17;;;10.90;99.90;;;;;;5075506;28;20963;-69
2021/03/27 04:51:30;;;;;;;3.77;3.27;;;10.90;99.90;;;;;;5077094;28;20408;-67
2021/03/27 04:54:06;;;;;;;3.37;3.07;;;10.70;99.90;;;;;;5076751;28;20440;-67
2021/03/27 04:56:53;;;;;;;3.87;2.60;;;10.60;99.90;;;;;;5076188;28;20453;-70
2021/03/27 04:59:37;;;;;;;4.17;3.73;;;10.60;99.90;;;;;;5058168;28;20425;-68
2021/03/27 05:02:08;;;;;;;3.07;2.77;;;10.60;99.90;;;;;;5075325;28;20935;-68
2021/03/27 05:04:50;;;;;;;4.93;3.47;;;10.50;99.90;;;;;;5076655;28;20426;-66
2021/03/27 05:07:21;;;;;;;3.77;2.97;;;10.40;99.90;;;;;;5077606;28;20436;-70
2021/03/27 05:09:54;;;;;;;4.03;3.63;;;10.40;99.90;;;;;;5076362;28;20496;-68
2021/03/27 05:12:29;;;;;;;4.43;3.50;;;10.30;99.90;;;;;;5075043;28;20956;-68
2021/03/27 05:15:10;;;;;;;4.17;3.27;;;10.40;99.90;;;;;;5076080;28;20510;-66
2021/03/27 05:18:27;;;;;;;3.70;3.10;;;10.40;99.90;;;;;;5075233;28;20477;-68
2021/03/27 05:21:44;;;;;;;3.70;3.10;;;10.40;99.90;;;;;;5075833;28;20400;-68
2021/03/27 05:24:29;;;;;;;4.07;3.20;;;10.20;99.90;;;;;;5075789;28;20445;-67
2021/03/27 05:27:17;;;;;;;3.67;3.33;;;10.20;99.90;;;;;;5075883;28;20408;-67
2021/03/27 05:29:55;;;;;;;3.97;3.00;;;10.20;99.90;;;;;;5057899;28;20451;-68
2021/03/27 05:32:37;;;;;;;6.00;3.57;;;10.10;99.90;;;;;;5074470;28;20448;-68
2021/03/27 05:35:20;;;;;;;3.40;2.80;;;10.10;99.90;;;;;;5075481;28;20444;-68
2021/03/27 05:38:02;;;;;;;3.80;3.07;;;10.00;99.90;;;;;;5075247;28;20403;-67
2021/03/27 05:41:16;;;;;;;3.77;2.93;;;9.90;99.90;;;;;;5076779;28;20529;-70
2021/03/27 05:44:15;;;;;;;3.57;3.27;;;9.90;99.90;;;;;;5083323;28;20460;-69
2021/03/27 05:47:16;;;;;;;3.70;3.20;;;9.90;99.90;;;;;;5066241;28;20452;-67
2021/03/27 05:50:29;;;;;;;3.73;2.53;;;9.80;99.90;;;;;;5077119;28;20908;-67
2021/03/27 05:53:25;;;;;;;3.70;2.50;;;9.80;99.90;;;;;;5042294;28;20533;-67
2021/03/27 05:56:07;;;;;;;3.80;2.50;;;9.70;99.90;;;;;;5077702;28;20523;-68
2021/03/27 05:59:08;;;;;;;4.90;2.60;;;9.70;99.90;;;;;;5076668;28;20460;-69
2021/03/27 06:01:50;;;;;;;2.33;1.90;;;9.70;99.90;;;;;;5056090;28;20452;-70
2021/03/27 06:04:50;;;;;;;2.40;2.00;;;9.70;99.90;;;;;;5057049;28;20752;-68
2021/03/27 06:07:44;;;;;;;2.90;1.60;;;9.80;99.90;;;;;;5057963;28;20496;-68
2021/03/27 06:10:24;;;;;;;2.93;1.83;;;9.70;99.90;;;;;;5037032;28;20438;-68
2021/03/27 06:16:37;;;;;;;1.90;1.73;;;9.80;99.90;;;;;;5004280;28;20466;-68
2021/03/27 06:19:44;;;;;;;1.70;1.50;;;9.90;99.90;;;;;;5076750;28;20442;-70
2021/03/27 06:22:56;;;;;;;2.03;1.73;;;9.90;99.90;;;;;;5075580;28;20778;-68
2021/03/27 06:26:07;;;;;;;2.40;1.90;;;9.90;99.90;;;;;;5074381;28;20480;-69
2021/03/27 06:29:03;;;;;;;3.57;1.87;;;9.80;99.90;;;;;;5045982;28;20424;-68
2021/03/27 06:31:56;;;;;;;1.27;1.13;;;9.80;99.90;;;;;;5073597;28;20854;-70
2021/03/27 06:34:47;;;;;;;1.77;1.20;;;9.80;99.90;;;;;;5074351;28;20951;-68
2021/03/27 06:37:35;;;;;;;3.60;1.93;;;9.80;99.90;;;;;;5074194;28;20917;-68
2021/03/27 06:40:35;;;;;;;1.93;1.63;;;10.00;99.90;;;;;;5073172;28;20450;-67
2021/03/27 06:43:58;;;;;;;2.73;1.80;;;10.10;99.90;;;;;;5075253;28;20433;-67
2021/03/27 06:46:42;;;;;;;2.70;1.67;;;10.00;99.90;;;;;;5074189;28;20964;-67
2021/03/27 06:50:05;;;;;;;2.43;1.67;;;9.80;99.90;;;;;;5075300;28;20479;-67
2021/03/27 06:52:48;;;;;;;2.53;1.50;;;9.70;99.90;;;;;;5060507;28;20827;-67
2021/03/27 06:55:43;;;;;;;4.23;1.93;;;9.50;99.90;;;;;;5075163;28;20515;-66
2021/03/27 06:58:41;;;;;;;1.80;1.50;;;9.40;99.90;;;;;;5075508;28;20430;-66
2021/03/27 07:01:43;;;;;;;1.40;1.30;;;9.40;99.90;;;;;;5074820;28;20847;-69
2021/03/27 07:04:49;;;;;;;1.63;1.30;;;9.30;99.90;;;;;;5073509;28;20925;-68
2021/03/27 07:07:44;;;;;;;2.07;1.40;;;9.30;99.90;;;;;;5025201;28;20956;-67
2021/03/27 07:10:37;;;;;;;2.40;1.93;;;9.30;99.90;;;;;;5076289;28;20452;-66
2021/03/27 07:13:52;;;;;;;1.47;1.37;;;9.20;99.90;;;;;;5077063;28;20810;-67
2021/03/27 07:16:34;;;;;;;1.80;1.43;;;9.20;99.90;;;;;;5078654;28;20495;-72
2021/03/27 07:19:45;;;;;;;1.63;1.50;;;9.10;99.90;;;;;;5078055;28;20448;-68
2021/03/27 07:22:32;;;;;;;2.03;1.30;;;9.00;99.90;;;;;;5081552;28;20483;-67
2021/03/27 07:25:45;;;;;;;1.50;1.20;;;8.80;99.90;;;;;;5083163;28;20415;-67
2021/03/27 07:28:44;;;;;;;1.37;1.23;;;8.80;99.90;;;;;;5101910;23;20499;-78
2021/03/27 07:31:24;;;;;;;1.30;1.20;;;8.70;99.90;;;;;;5082555;28;20437;-79
2021/03/27 07:34:27;;;;;;;1.50;1.23;;;8.60;99.90;;;;;;5084403;28;20418;-80
2021/03/27 07:37:52;;;;;;;1.07;1.07;;;8.60;99.90;;;;;;5064443;28;20473;-78
2021/03/27 07:40:44;;;;;;;1.40;1.30;;;8.50;99.90;;;;;;4982402;28;20450;-78
2021/03/27 07:43:35;;;;;;;0.90;0.90;;;8.50;99.90;;;;;;5082557;28;20424;-78
2021/03/27 07:46:25;;;;;;;1.90;1.13;;;8.40;99.90;;;;;;5099687;28;20468;-79
2021/03/27 07:49:21;;;;;;;2.23;1.00;;;8.50;99.90;;;;;;5081622;28;20450;-77
2021/03/27 07:52:05;;;;;;;1.70;1.00;;;8.40;99.90;;;;;;5082382;28;20534;-79
2021/03/27 07:55:12;;;;;;;1.30;0.70;;;8.50;99.90;;;;;;5082018;28;20893;-79
2021/03/27 07:58:02;;;;;;;2.90;1.20;;;8.80;99.90;;;;;;5080947;28;20844;-79
2021/03/27 08:01:12;;;;;;;1.37;0.70;;;12.80;99.10;;;;;;5097717;28;20539;-81
2021/03/27 08:04:13;;;;;;;0.97;0.87;;;18.30;83.60;;;;;;5099325;28;20435;-77
2021/03/27 08:06:48;;;;;;;1.43;0.97;;;17.20;76.50;;;;;;5080685;28;20493;-77
2021/03/27 08:09:38;;;;;;;0.80;0.70;;;14.10;82.70;;;;;;5081941;28;20951;-79
2021/03/27 08:12:45;;;;;;;3.00;1.10;;;11.70;89.10;;;;;;5041385;28;20923;-77
2021/03/27 08:15:31;;;;;;;1.93;0.90;;;9.70;90.50;;;;;;5098825;28;20819;-80
2021/03/27 08:18:59;;;;;;;0.70;0.67;;;9.60;92.40;;;;;;5120505;28;20434;-80
2021/03/27 08:24:50;;;;;;;2.10;0.90;;;12.60;81.90;;;;;;5121074;28;20409;-79
2021/03/27 08:27:45;;;;;;;3.23;1.07;;;13.00;79.40;;;;;;5093153;28;20430;-78
2021/03/27 08:30:56;;;;;;;1.23;0.90;;;11.40;82.30;;;;;;5120523;28;20450;-80
2021/03/27 08:33:59;;;;;;;1.23;1.13;;;10.10;87.50;;;;;;5101015;23;20451;-80
2021/03/27 08:37:00;;;;;;;1.13;0.80;;;12.70;82.80;;;;;;5082165;28;20443;-78
2021/03/27 08:40:03;;;;;;;2.10;0.90;;;14.50;71.80;;;;;;5105232;28;20437;-78
2021/03/27 08:42:57;;;;;;;0.80;0.77;;;15.10;64.90;;;;;;5083938;28;20430;-78
2021/03/27 08:45:56;;;;;;;1.53;0.80;;;14.50;64.60;;;;;;5078315;28;20440;-78
2021/03/27 08:48:46;;;;;;;1.23;0.60;;;15.30;64.40;;;;;;5065905;28;20472;-79
2021/03/27 08:51:24;;;;;;;0.90;0.70;;;17.00;59.80;;;;;;5064116;28;20439;-79
2021/03/27 08:54:30;;;;;;;1.57;0.80;;;17.50;56.30;;;;;;5060782;28;20422;-79
2021/03/27 08:57:33;;;;;;;1.83;0.80;;;14.80;59.10;;;;;;5059988;28;20574;-78
2021/03/27 09:01:00;;;;;;;0.97;0.73;;;14.00;63.40;;;;;;5060963;28;20449;-79
2021/03/27 09:04:13;;;;;;;2.30;1.03;;;13.10;66.70;;;;;;4999083;28;20464;-79
2021/03/27 09:07:14;;;;;;;3.67;0.80;;;12.50;68.40;;;;;;5053530;28;20467;-78
2021/03/27 09:10:21;;;;;;;1.67;0.90;;;11.30;72.30;;;;;;5043834;28;20437;-78
2021/03/27 09:13:00;;;;;;;2.63;0.90;;;11.20;74.50;;;;;;5060040;28;20480;-78
2021/03/27 09:16:10;;;;;;;1.60;0.97;;;11.10;73.30;;;;;;5060641;28;20480;-78
2021/03/27 09:19:12;;;;;;;1.43;0.80;;;10.60;73.30;;;;;;5037422;28;20423;-79
2021/03/27 09:22:23;;;;;;;1.30;0.93;;;11.70;72.90;;;;;;5062899;28;20440;-78
2021/03/27 09:24:56;;;;;;;1.50;0.70;;;11.70;69.70;;;;;;5062651;28;20441;-79
2021/03/27 09:27:55;;;;;;;0.73;0.70;;;11.80;70.90;;;;;;5078931;28;20438;-80
2021/03/27 09:30:34;;;;;;;0.80;0.60;;;10.70;75.50;;;;;;5057463;28;20450;-78
2021/03/27 09:33:10;;;;;;;1.13;0.90;;;10.10;78.30;;;;;;5061461;28;20414;-79
2021/03/27 09:36:03;;;;;;;1.33;0.80;;;9.70;81.60;;;;;;5064177;28;20526;-77
2021/03/27 09:38:46;;;;;;;1.10;1.00;;;9.70;82.90;;;;;;5076383;28;20535;-78
2021/03/27 09:41:49;;;;;;;0.83;0.73;;;9.90;82.40;;;;;;5098635;28;20467;-78
2021/03/27 09:44:53;;;;;;;1.63;1.00;;;11.10;79.50;;;;;;5104596;28;20411;-78
2021/03/27 09:47:35;;;;;;;2.67;0.90;;;15.80;62.10;;;;;;5030641;28;20476;-77
2021/03/27 09:50:17;;;;;;;1.77;0.90;;;18.00;53.30;;;;;;5079345;28;20437;-76
2021/03/27 09:53:02;;;;;;;1.00;0.90;;;17.90;48.20;;;;;;5060601;28;20484;-77
2021/03/27 09:55:51;;;;;;;1.20;1.03;;;16.70;49.10;;;;;;5059712;28;20991;-77
2021/03/27 09:58:35;;;;;;;2.50;1.20;;;17.70;48.90;;;;;;5060270;28;20774;-78
2021/03/27 10:01:36;;;;;;;1.57;1.00;;;17.10;48.70;;;;;;5053407;28;20480;-78
2021/03/27 10:04:23;;;;;;;1.30;1.10;;;16.20;50.90;;;;;;5060874;28;21035;-78
2021/03/27 10:07:17;;;;;;;5.20;1.60;;;14.80;53.30;;;;;;5081317;28;20451;-78
2021/03/27 10:09:56;;;;;;;1.23;1.10;;;13.00;57.30;;;;;;5096413;28;20451;-78
2021/03/27 10:12:28;;;;;;;1.30;1.10;;;12.20;60.80;;;;;;5100812;28;20428;-78
2021/03/27 10:15:01;;;;;;;1.70;1.20;;;12.10;62.50;;;;;;5090069;28;20440;-77
2021/03/27 10:17:35;;;;;;;1.50;1.00;;;11.50;63.10;;;;;;5083331;28;21063;-77
2021/03/27 10:20:17;;;;;;;1.40;0.93;;;11.30;63.00;;;;;;5082911;28;20489;-79
2021/03/27 10:22:52;;;;;;;0.73;0.73;;;10.80;65.70;;;;;;5081652;28;20434;-78
2021/03/27 10:25:30;;;;;;;4.70;1.03;;;11.40;66.90;;;;;;5088797;28;20407;-80
2021/03/27 10:28:07;;;;;;;0.80;0.70;;;11.30;65.50;;;;;;5056799;23;20500;-77
2021/03/27 10:30:48;;;;;;;1.47;1.20;;;11.00;65.40;;;;;;5013021;28;20442;-78
2021/03/27 10:33:19;;;;;;;1.70;1.10;;;11.00;65.90;;;;;;4998965;28;20414;-78
2021/03/27 10:36:21;;;;;;;2.70;1.20;;;10.80;66.60;;;;;;4997797;28;20473;-78
2021/03/27 10:39:29;;;;;;;2.10;1.10;;;10.80;68.40;;;;;;4994694;28;20635;-80
2021/03/27 10:42:25;;;;;;;1.33;1.23;;;10.60;67.30;;;;;;4982471;28;20420;-74
2021/03/27 10:45:06;;;;;;;3.13;1.87;;;10.30;67.40;;;;;;4996125;28;20963;-75
2021/03/27 10:47:40;;;;;;;1.50;1.30;;;10.60;67.50;;;;;;4994025;28;20492;-76
2021/03/27 10:50:19;;;;;;;1.20;0.93;;;12.20;65.00;;;;;;4996120;28;20437;-75
2021/03/27 10:53:11;;;;;;;4.20;1.20;;;13.50;60.30;;;;;;4996822;28;20531;-79
2021/03/27 10:56:05;;;;;;;1.20;0.87;;;13.10;59.40;;;;;;4994897;28;20702;-76
2021/03/27 10:58:51;;;;;;;5.43;1.40;;;13.50;59.00;;;;;;5011901;28;20464;-76
2021/03/27 11:01:46;;;;;;;1.47;0.93;;;13.10;58.90;;;;;;5000690;28;20485;-76
2021/03/27 11:04:42;;;;;;;1.77;1.23;;;12.40;60.40;;;;;;5018755;28;20964;-79
2021/03/27 11:07:52;;;;;;;1.83;1.03;;;12.70;60.00;;;;;;5002731;28;20470;-80
2021/03/27 11:11:03;;;;;;;1.10;0.87;;;13.70;59.50;;;;;;4992511;28;20439;-76
2021/03/27 11:14:00;;;;;;;2.73;1.27;;;13.50;57.30;;;;;;5001570;28;20427;-78
2021/03/27 11:17:01;;;;;;;1.83;1.00;;;12.00;59.90;;;;;;5000266;28;20499;-78
2021/03/27 11:20:26;;;;;;;2.07;1.00;;;11.20;62.60;;;;;;4995287;28;20540;-79
2021/03/27 11:23:27;;;;;;;2.27;1.00;;;11.90;62.10;;;;;;5003954;28;20492;-77
2021/03/27 11:26:24;;;;;;;1.47;0.80;;;13.50;59.40;;;;;;5016965;28;20443;-83
2021/03/27 11:28:56;;;;;;;1.43;0.90;;;14.20;56.70;;;;;;5003952;28;21081;-81
2021/03/27 11:31:39;;;;;;;1.17;1.03;;;14.10;56.90;;;;;;5019383;28;20548;-77
2021/03/27 11:34:21;;;;;;;3.87;1.00;;;14.80;56.80;;;;;;4986020;28;20441;-80
2021/03/27 11:36:55;;;;;;;1.50;1.27;;;14.50;55.50;;;;;;4984051;28;20478;-80
2021/03/27 11:39:31;;;;;;;3.13;0.83;;;15.10;54.30;;;;;;5000747;28;20769;-80
2021/03/27 11:42:05;;;;;;;0.93;0.80;;;15.80;52.90;;;;;;4966848;28;20447;-81
2021/03/27 11:44:55;;;;;;;1.37;0.80;;;16.40;50.60;;;;;;4984214;28;20526;-83
2021/03/27 11:47:40;;;;;;;1.53;0.90;;;16.10;51.10;;;;;;4998563;28;20482;-79
2021/03/27 11:50:40;;;;;;;2.97;1.03;;;16.30;49.20;;;;;;5017869;28;20441;-78
2021/03/27 11:53:20;;;;;;;1.67;1.00;;;16.50;50.00;;;;;;5002700;28;20440;-82
2021/03/27 11:56:14;;;;;;;2.60;1.13;;;16.10;50.80;;;;;;5003051;28;20515;-79
2021/03/27 12:02:04;;;;;;;2.20;1.10;;;15.80;52.20;;;;;;5002618;28;20498;-81
2021/03/27 12:04:51;;;;;;;1.90;1.10;;;18.00;48.70;;;;;;5003774;28;20443;-77
2021/03/27 12:07:24;;;;;;;1.80;0.93;;;17.10;47.50;;;;;;5003844;28;20455;-82
2021/03/27 12:09:57;;;;;;;2.30;0.80;;;16.90;48.70;;;;;;5001781;28;20429;-82
2021/03/27 12:19:16;;;;;;;4.20;1.03;;;15.40;48.00;;;;;;4982203;28;20442;-81
2021/03/27 12:21:57;;;;;;;1.73;1.00;;;16.20;48.90;;;;;;4996709;28;20452;-77
2021/03/27 12:24:48;;;;;;;0.97;0.87;;;17.90;45.50;;;;;;4980527;28;20465;-79
2021/03/27 12:27:25;;;;;;;2.80;1.00;;;16.60;46.40;;;;;;5002514;28;20471;-79
2021/03/27 12:30:00;;;;;;;2.10;0.90;;;16.50;45.80;;;;;;5017257;28;20441;-79
2021/03/27 12:32:51;;;;;;;1.17;1.07;;;15.20;47.10;;;;;;4997666;28;20831;-79
2021/03/27 12:35:30;;;;;;;1.80;0.90;;;13.90;50.10;;;;;;5001200;28;20534;-78
2021/03/27 12:38:20;;;;;;;2.20;1.17;;;12.80;52.30;;;;;;5005835;28;20471;-78
2021/03/27 12:41:03;;;;;;;1.30;1.17;;;12.60;54.70;;;;;;5004707;28;20477;-78
2021/03/27 12:43:33;;;;;;;1.33;1.10;;;12.10;56.20;;;;;;5021656;28;20526;-77
2021/03/27 12:46:17;;;;;;;3.60;1.23;;;12.20;57.10;;;;;;5019516;28;20604;-78
2021/03/27 12:49:05;;;;;;;1.93;1.13;;;11.90;57.60;;;;;;5004218;28;20429;-78
2021/03/27 12:51:43;;;;;;;3.33;1.20;;;11.80;58.00;;;;;;5021281;28;20445;-78
2021/03/27 12:54:31;;;;;;;2.70;1.30;;;11.60;57.30;;;;;;5022561;28;20468;-77
2021/03/27 12:57:29;;;;;;;1.57;1.30;;;11.80;57.60;;;;;;5017529;28;20484;-78
2021/03/27 13:00:47;;;;;;;1.50;1.00;;;11.50;56.50;;;;;;5000270;28;20438;-77
2021/03/27 13:03:47;;;;;;;1.10;1.00;;;11.20;58.10;;;;;;5001132;28;20511;-77
2021/03/27 13:06:36;;;;;;;2.00;1.00;;;10.70;58.40;;;;;;4995996;28;20455;-81
2021/03/27 13:09:50;;;;;;;0.90;0.60;;;11.30;57.40;;;;;;5001555;28;20963;-78
2021/03/27 13:12:22;;;;;;;3.23;1.00;;;12.10;55.90;;;;;;5003560;28;20429;-81
2021/03/27 13:15:23;;;;;;;2.00;1.07;;;12.10;55.40;;;;;;5001637;28;20767;-77
2021/03/27 13:18:21;;;;;;;1.30;1.20;;;11.80;55.80;;;;;;5018507;28;20463;-78
2021/03/27 13:20:55;;;;;;;2.87;1.20;;;11.40;56.70;;;;;;5017066;28;20547;-77
2021/03/27 13:23:26;;;;;;;2.00;0.90;;;11.30;56.50;;;;;;5017508;28;20441;-78
2021/03/27 13:25:56;;;;;;;2.00;0.90;;;11.60;56.90;;;;;;5017613;28;20444;-79
2021/03/27 13:28:31;;;;;;;1.87;1.13;;;11.80;55.60;;;;;;5018214;28;20591;-78
2021/03/27 13:31:09;;;;;;;1.57;1.10;;;11.70;55.30;;;;;;5023676;28;20521;-78
2021/03/27 13:33:44;;;;;;;1.80;1.00;;;11.60;56.00;;;;;;5037846;28;20435;-78
2021/03/27 13:36:25;;;;;;;1.93;1.00;;;11.50;56.80;;;;;;5038401;28;20495;-77
2021/03/27 13:39:03;;;;;;;2.20;0.80;;;11.60;56.90;;;;;;5038477;28;20473;-78
2021/03/27 13:42:16;;;;;;;2.20;1.43;;;11.50;56.20;;;;;;5040897;28;20470;-78
2021/03/27 13:44:55;;;;;;;2.40;1.10;;;11.50;57.30;;;;;;5011300;28;20573;-77
2021/03/27 13:47:31;;;;;;;1.83;1.10;;;12.10;54.90;;;;;;5036513;28;20474;-78
2021/03/27 13:50:10;;;;;;;1.23;0.90;;;11.80;54.30;;;;;;5022237;28;20447;-78
2021/03/27 13:52:47;;;;;;;4.10;1.37;;;11.90;54.90;;;;;;5041830;28;20783;-77
2021/03/27 13:55:36;;;;;;;1.70;0.80;;;12.00;53.50;;;;;;5021914;28;20463;-78
2021/03/27 13:58:10;;;;;;;1.57;1.13;;;11.70;53.90;;;;;;5019764;28;20560;-78
2021/03/27 14:00:44;;;;;;;1.83;0.80;;;11.80;54.80;;;;;;5037522;28;20551;-78
2021/03/27 14:03:25;;;;;;;3.43;1.20;;;12.30;51.00;;;;;;5022587;28;20456;-78
2021/03/27 14:06:04;;;;;;;1.23;0.80;;;11.90;51.00;;;;;;5036333;28;20450;-77
2021/03/27 14:08:47;;;;;;;1.43;0.80;;;11.70;53.20;;;;;;5038074;28;20493;-77
2021/03/27 14:11:21;;;;;;;1.70;1.20;;;11.30;54.80;;;;;;5037872;28;20793;-77
2021/03/27 14:13:53;;;;;;;1.37;0.93;;;11.10;55.10;;;;;;5038069;28;20423;-77
2021/03/27 14:16:40;;;;;;;1.20;0.77;;;11.00;55.60;;;;;;5037803;28;20591;-77
2021/03/27 14:19:26;;;;;;;5.97;1.30;;;10.90;55.10;;;;;;5002316;28;20962;-77
2021/03/27 14:22:03;;;;;;;2.10;0.80;;;10.90;55.70;;;;;;5037305;28;20526;-77
2021/03/27 14:25:05;;;;;;;2.17;0.87;;;11.00;55.80;;;;;;5019892;28;20494;-80
2021/03/27 14:27:39;;;;;;;2.53;0.87;;;10.90;56.10;;;;;;5031656;28;20559;-77
2021/03/27 14:30:20;;;;;;;1.43;1.33;;;10.60;57.10;;;;;;5016995;28;20406;-77
2021/03/27 14:32:58;;;;;;;3.80;0.90;;;10.60;58.00;;;;;;5036981;28;20430;-76
2021/03/27 14:35:52;;;;;;;1.40;0.80;;;10.30;58.90;;;;;;5017017;28;20473;-76
2021/03/27 14:39:01;;;;;;;3.17;0.70;;;10.20;60.00;;;;;;5035994;28;20576;-77
2021/03/27 14:41:37;;;;;;;1.20;0.80;;;10.30;60.70;;;;;;4998397;28;20429;-78
2021/03/27 14:44:15;;;;;;;2.70;1.40;;;10.30;61.20;;;;;;5035629;28;20410;-77
2021/03/27 14:47:15;;;;;;;2.13;0.90;;;10.50;60.80;;;;;;5036532;28;20926;-77
2021/03/27 14:50:00;;;;;;;1.43;0.80;;;10.40;60.40;;;;;;5036508;28;20443;-76